Time;durP1;ratioP1;P1;durP2;ratioP2;P2;SDS_P1;SDS_P2;PMS_P1;PMS_P2;Temp;Humidity;BMP_temperature;BMP_pressure;BME280_temperature;BME280_humidity;BME280_pressure;Samples;Min_cycle;Max_cycle;Signal;HPM_P1;HPM_P2
2021/07/22 10:13:52;;;;;;;9.78;5.10;;;;;;;30.05;59.28;100163.08;1780030;79;20957;-85
2021/07/22 10:16:20;;;;;;;9.63;4.60;;;;;;;29.94;56.10;100153.20;1784381;80;21046;-86
2021/07/22 10:18:47;;;;;;;8.93;4.47;;;;;;;29.90;56.75;100158.78;1766773;79;22048;-87
2021/07/22 10:21:15;;;;;;;9.83;4.12;;;;;;;29.54;57.02;100162.23;1760031;79;21035;-85
2021/07/22 10:23:42;;;;;;;19.57;7.00;;;;;;;29.56;58.72;100172.33;1766813;79;21579;-85
2021/07/22 10:26:09;;;;;;;14.73;7.03;;;;;;;29.50;57.05;100162.81;1764219;80;21516;-85
2021/07/22 10:28:35;;;;;;;7.85;4.33;;;;;;;29.39;59.46;100165.03;1770505;80;21071;-85
2021/07/22 10:31:06;;;;;;;9.18;4.33;;;;;;;29.69;61.71;100162.42;1746392;80;20996;-86
2021/07/22 10:33:34;;;;;;;8.75;4.15;;;;;;;30.12;59.23;100167.84;1743643;80;21018;-83
2021/07/22 10:36:01;;;;;;;10.08;4.45;;;;;;;30.24;56.43;100166.63;1736479;80;21035;-88
2021/07/22 10:38:48;;;;;;;8.83;4.40;;;;;;;30.13;55.57;100162.47;1736345;80;21077;-88
2021/07/22 10:41:37;;;;;;;8.38;4.03;;;;;;;29.91;56.41;100164.52;1716664;83;21497;-87
2021/07/22 10:44:16;;;;;;;8.65;4.85;;;;;;;29.76;56.55;100165.77;1716428;82;21600;-89
2021/07/22 10:46:58;;;;;;;8.10;4.60;;;;;;;29.65;57.87;100155.49;1730623;81;21062;-88
2021/07/22 10:49:42;;;;;;;9.15;4.10;;;;;;;29.63;57.19;100159.26;1711598;82;21675;-86
2021/07/22 10:52:11;;;;;;;6.90;4.45;;;;;;;29.55;58.76;100158.25;1708284;83;21120;-86
2021/07/22 10:54:54;;;;;;;12.10;4.72;;;;;;;29.36;59.90;100162.27;1711140;82;21106;-83
2021/07/22 10:57:38;;;;;;;9.03;4.30;;;;;;;29.39;60.82;100158.69;1689273;83;21563;-84
2021/07/22 11:00:10;;;;;;;8.05;4.30;;;;;;;29.67;59.59;100161.23;1717961;82;21042;-85
2021/07/22 11:02:47;;;;;;;8.90;4.40;;;;;;;29.50;56.63;100165.59;1655904;85;21041;-86
2021/07/22 11:05:30;;;;;;;10.40;4.28;;;;;;;29.47;56.24;100171.95;1678881;85;21107;-90
2021/07/22 11:08:22;;;;;;;12.33;4.22;;;;;;;29.19;56.42;100157.70;1675578;85;21104;-85
2021/07/22 11:11:07;;;;;;;10.13;3.90;;;;;;;29.17;57.65;100151.75;1676715;84;21557;-84
2021/07/22 11:13:41;;;;;;;6.53;3.98;;;;;;;29.30;57.12;100152.16;1654857;84;21538;-85
2021/07/22 11:16:22;;;;;;;10.00;3.58;;;;;;;29.41;58.41;100143.79;1674065;85;21221;-83
2021/07/22 11:19:14;;;;;;;13.18;3.90;;;;;;;29.53;57.96;100138.41;1674026;83;21053;-85
2021/07/22 11:21:49;;;;;;;8.75;3.80;;;;;;;29.52;57.39;100133.46;1671146;84;21127;-83
2021/07/22 11:24:25;;;;;;;7.55;3.50;;;;;;;29.34;57.26;100133.50;1683415;84;21062;-89
2021/07/22 11:26:53;;;;;;;14.50;3.75;;;;;;;29.32;56.00;100142.02;1672597;84;21015;-83
2021/07/22 11:29:23;;;;;;;10.82;3.87;;;;;;;29.33;55.35;100143.62;1636078;87;20987;-85
2021/07/22 11:31:54;;;;;;;5.85;3.40;;;;;;;29.46;54.47;100134.27;1675035;85;21547;-83
2021/07/22 11:34:36;;;;;;;5.20;3.33;;;;;;;29.74;58.41;100129.25;1657178;85;21089;-84
2021/07/22 11:37:03;;;;;;;8.28;3.45;;;;;;;30.43;55.01;100138.30;1663801;85;21171;-85
2021/07/22 11:39:37;;;;;;;10.03;3.85;;;;;;;30.83;50.90;100134.69;1659489;81;21024;-85
2021/07/22 11:42:10;;;;;;;6.97;3.58;;;;;;;30.88;48.87;100134.84;1750780;81;21039;-83
2021/07/22 11:44:37;;;;;;;9.88;3.30;;;;;;;30.84;47.03;100131.30;1755116;80;21045;-82
2021/07/22 11:47:16;;;;;;;6.92;3.20;;;;;;;30.99;47.78;100131.37;1763060;80;21002;-85
2021/07/22 11:49:42;;;;;;;6.20;2.92;;;;;;;31.03;43.53;100126.55;1713361;82;21107;-81
2021/07/22 11:52:08;;;;;;;6.15;2.90;;;;;;;30.66;44.29;100134.98;1694153;83;21081;-81
2021/07/22 11:54:34;;;;;;;7.12;3.50;;;;;;;30.38;43.89;100128.98;1697455;82;21072;-80
2021/07/22 11:57:00;;;;;;;10.53;3.30;;;;;;;30.04;44.13;100132.92;1708092;81;21011;-83
2021/07/22 11:59:33;;;;;;;4.58;2.95;;;;;;;29.94;44.38;100128.98;1701285;82;21110;-88
2021/07/22 12:02:00;;;;;;;8.83;2.80;;;;;;;29.89;45.08;100129.42;1644712;86;21465;-84
2021/07/22 12:04:35;;;;;;;5.30;2.70;;;;;;;30.09;44.20;100129.13;1617789;86;21026;-84
2021/07/22 12:07:04;;;;;;;5.35;2.60;;;;;;;30.24;44.08;100129.88;1658538;86;21054;-84
2021/07/22 12:09:31;;;;;;;11.93;3.15;;;;;;;30.46;43.99;100128.36;1659118;86;21189;-84
2021/07/22 12:12:01;;;;;;;6.05;2.90;;;;;;;30.69;45.04;100123.63;1651535;86;21117;-82
2021/07/22 12:14:38;;;;;;;7.87;3.17;;;;;;;31.06;44.33;100126.33;1623043;87;21987;-83
2021/07/22 12:17:11;;;;;;;5.42;2.90;;;;;;;31.09;43.75;100124.93;1625057;87;21143;-82
2021/07/22 12:19:48;;;;;;;6.70;2.60;;;;;;;30.97;45.79;100127.62;1621338;88;21582;-82
2021/07/22 12:22:32;;;;;;;10.88;2.72;;;;;;;31.12;45.70;100131.06;1626996;88;20975;-84
2021/07/22 12:25:11;;;;;;;4.85;2.77;;;;;;;31.43;45.67;100134.75;1623924;87;21022;-82
2021/07/22 12:27:44;;;;;;;5.85;2.83;;;;;;;31.72;44.16;100130.27;1630527;86;21160;-81
2021/07/22 12:30:23;;;;;;;4.12;2.50;;;;;;;31.52;42.96;100131.48;1634929;86;21058;-83
2021/07/22 12:32:59;;;;;;;4.37;2.45;;;;;;;31.16;42.16;100139.38;1637295;87;21192;-83
2021/07/22 12:35:41;;;;;;;4.65;2.47;;;;;;;30.63;41.11;100137.79;1633158;87;21106;-83
2021/07/22 12:38:16;;;;;;;8.43;2.93;;;;;;;30.55;41.06;100128.09;1611658;87;21034;-82
2021/07/22 12:41:07;;;;;;;7.65;2.55;;;;;;;30.68;42.07;100135.37;1640852;87;21079;-85
2021/07/22 12:43:49;;;;;;;4.15;2.85;;;;;;;30.97;41.68;100133.77;1603198;88;21556;-83
2021/07/22 12:46:20;;;;;;;7.12;2.52;;;;;;;31.31;41.29;100131.08;1555586;92;21114;-90
2021/07/22 12:48:48;;;;;;;10.78;2.67;;;;;;;31.49;40.99;100144.06;1553627;91;21089;-81
2021/07/22 12:51:18;;;;;;;5.72;2.50;;;;;;;31.47;40.74;100135.31;1554086;90;21154;-85
2021/07/22 12:53:46;;;;;;;9.53;2.75;;;;;;;31.54;40.83;100131.86;1535557;93;21598;-85
2021/07/22 12:56:12;;;;;;;5.50;2.55;;;;;;;31.61;40.31;100135.95;1534963;93;21578;-85
2021/07/22 12:58:44;;;;;;;10.10;2.55;;;;;;;31.66;40.70;100138.29;1522782;93;21284;-83
2021/07/22 13:03:56;;;;;;;9.53;3.12;;;;;;;31.49;40.17;100137.88;1511402;93;21774;-84
2021/07/22 13:06:23;;;;;;;4.10;2.70;;;;;;;31.21;41.52;100131.38;1526662;94;21093;-84
2021/07/22 13:08:50;;;;;;;6.05;2.52;;;;;;;31.17;42.31;100125.64;1511975;93;21079;-83
2021/07/22 13:11:17;;;;;;;5.37;2.60;;;;;;;31.25;41.77;100138.30;1515272;94;21738;-84
2021/07/22 13:13:51;;;;;;;3.08;2.08;;;;;;;31.05;40.18;100126.94;1503463;94;21111;-89
2021/07/22 13:16:18;;;;;;;10.72;2.65;;;;;;;31.06;41.06;100127.14;1504637;93;21120;-81
2021/07/22 13:18:44;;;;;;;4.45;2.52;;;;;;;31.06;40.95;100131.33;1502408;93;21120;-85
2021/07/22 13:21:13;;;;;;;5.33;2.70;;;;;;;30.95;41.00;100122.27;1504022;93;21226;-85
2021/07/22 13:23:40;;;;;;;6.05;2.35;;;;;;;31.08;42.54;100123.94;1500736;93;21132;-84
2021/07/22 13:26:08;;;;;;;7.65;2.20;;;;;;;31.13;40.86;100122.89;1533924;92;21753;-89
2021/07/22 13:28:35;;;;;;;7.08;2.37;;;;;;;31.17;41.65;100127.03;1519878;92;21580;-84
2021/07/22 13:31:03;;;;;;;8.33;2.55;;;;;;;31.27;42.22;100119.19;1525733;92;21179;-85
2021/07/22 13:33:29;;;;;;;4.87;2.98;;;;;;;31.04;40.61;100118.41;1519215;92;21134;-84
2021/07/22 13:35:56;;;;;;;4.40;2.65;;;;;;;30.66;40.06;100123.06;1605339;89;21174;-82
2021/07/22 13:38:32;;;;;;;4.05;2.33;;;;;;;30.30;41.14;100110.19;1607329;89;21515;-84
2021/07/22 13:40:50;;;;;;;5.53;2.50;;;;;;;30.44;41.28;100128.75;1621526;86;21086;-85
2021/07/22 13:43:16;;;;;;;5.30;2.55;;;;;;;30.51;41.26;100129.33;1655435;85;20995;-88
2021/07/22 13:45:42;;;;;;;6.33;2.27;;;;;;;30.51;40.56;100130.11;1664833;85;21042;-84
2021/07/22 13:48:08;;;;;;;5.97;2.12;;;;;;;30.43;40.52;100131.95;1681488;84;20987;-87
2021/07/22 13:50:34;;;;;;;10.53;2.35;;;;;;;30.48;40.35;100133.70;1668062;83;20915;-83
2021/07/22 13:53:00;;;;;;;11.33;2.72;;;;;;;30.28;40.93;100141.77;1706647;83;21146;-82
2021/07/22 13:55:26;;;;;;;5.85;2.40;;;;;;;30.21;40.79;100131.27;1706763;83;21104;-85
2021/07/22 13:57:51;;;;;;;5.50;2.30;;;;;;;30.26;41.42;100133.62;1698574;83;21513;-84
2021/07/22 14:00:18;;;;;;;16.17;2.50;;;;;;;30.20;40.18;100133.23;1718543;80;20912;-83
2021/07/22 14:02:44;;;;;;;5.72;2.30;;;;;;;29.98;40.04;100138.11;1756074;80;21106;-84
2021/07/22 14:05:12;;;;;;;6.70;2.30;;;;;;;29.85;39.72;100130.02;1762950;80;20889;-83
2021/07/22 14:07:38;;;;;;;4.85;2.33;;;;;;;29.76;40.30;100131.83;1750559;79;21988;-82
2021/07/22 14:10:05;;;;;;;5.03;2.25;;;;;;;29.75;39.85;100130.86;1762288;80;20983;-84
2021/07/22 14:12:32;;;;;;;12.15;2.77;;;;;;;29.71;39.96;100137.00;1747441;80;21001;-85
2021/07/22 14:15:00;;;;;;;4.75;2.40;;;;;;;29.74;41.09;100130.07;1738777;81;20957;-81
2021/07/22 14:17:26;;;;;;;5.67;1.95;;;;;;;29.75;40.70;100133.03;1747258;80;21017;-85
2021/07/22 14:19:51;;;;;;;4.22;2.35;;;;;;;29.76;40.82;100137.38;1756190;80;20995;-85
2021/07/22 14:22:20;;;;;;;4.08;2.08;;;;;;;29.74;41.85;100139.80;1747312;80;20884;-84
2021/07/22 14:24:45;;;;;;;7.60;2.22;;;;;;;29.77;41.07;100146.53;1771196;80;20996;-82
2021/07/22 14:27:11;;;;;;;4.20;2.20;;;;;;;29.78;41.06;100143.94;1749728;80;21510;-81
2021/07/22 14:29:37;;;;;;;5.37;2.30;;;;;;;29.78;42.06;100147.50;1750389;81;20956;-83
2021/07/22 14:32:04;;;;;;;4.40;2.20;;;;;;;29.82;41.34;100149.66;1751956;81;21108;-83
2021/07/22 14:34:30;;;;;;;6.67;2.40;;;;;;;29.88;43.45;100135.58;1757123;80;21079;-84
2021/07/22 14:36:56;;;;;;;9.90;2.27;;;;;;;30.19;42.16;100138.61;1767764;79;21084;-84
2021/07/22 14:39:22;;;;;;;5.40;2.08;;;;;;;30.25;43.05;100132.05;1746623;81;20995;-84
2021/07/22 14:41:48;;;;;;;5.53;2.20;;;;;;;30.31;42.85;100145.72;1752418;80;20850;-85
2021/07/22 14:44:14;;;;;;;11.93;2.27;;;;;;;30.31;40.44;100149.30;1762544;80;21954;-85
2021/07/22 14:46:40;;;;;;;6.05;1.82;;;;;;;30.18;41.15;100145.95;1750482;80;20884;-81
2021/07/22 14:49:06;;;;;;;5.05;2.20;;;;;;;30.13;41.47;100147.78;1774366;80;21657;-88
2021/07/22 14:51:32;;;;;;;4.70;2.10;;;;;;;29.96;40.64;100142.48;1784625;80;20943;-84
2021/07/22 14:53:58;;;;;;;6.78;2.30;;;;;;;29.82;41.38;100141.94;1784356;80;21510;-83
2021/07/22 14:56:24;;;;;;;5.92;2.25;;;;;;;29.78;41.17;100143.94;1781021;78;21178;-85
2021/07/22 14:58:50;;;;;;;7.85;2.02;;;;;;;29.51;41.37;100138.04;1784421;78;20868;-84
2021/07/22 15:01:16;;;;;;;6.37;2.50;;;;;;;29.47;42.12;100142.19;1784545;78;20978;-85
2021/07/22 15:03:42;;;;;;;19.30;4.12;;;;;;;29.54;41.17;100135.85;1781123;80;20865;-83
2021/07/22 15:06:07;;;;;;;9.33;2.72;;;;;;;29.63;42.39;100136.25;1746172;80;21624;-82
2021/07/22 15:08:33;;;;;;;5.20;2.20;;;;;;;29.83;42.57;100136.59;1784714;78;21087;-85
2021/07/22 15:11:01;;;;;;;7.87;2.00;;;;;;;29.78;42.23;100126.67;1782923;80;20911;-84
2021/07/22 15:13:27;;;;;;;9.43;1.70;;;;;;;29.77;43.23;100129.27;1783475;80;20952;-86
2021/07/22 15:15:53;;;;;;;3.15;1.80;;;;;;;29.67;42.42;100132.86;1787085;78;21499;-87
2021/07/22 15:18:19;;;;;;;7.50;2.05;;;;;;;29.48;43.38;100121.58;1785008;79;20889;-87
2021/07/22 15:20:45;;;;;;;7.70;2.22;;;;;;;29.44;42.80;100122.17;1767456;79;21753;-88
2021/07/22 15:23:11;;;;;;;6.78;2.10;;;;;;;29.39;42.32;100127.55;1791788;79;20929;-86
2021/07/22 15:25:39;;;;;;;6.53;1.80;;;;;;;29.18;42.73;100127.59;1789552;79;21693;-89
2021/07/22 15:28:05;;;;;;;4.35;1.60;;;;;;;29.14;44.16;100129.55;1795468;79;21169;-86
2021/07/22 15:30:31;;;;;;;5.28;1.60;;;;;;;29.21;44.45;100124.02;1769709;79;21045;-88
2021/07/22 15:32:57;;;;;;;4.33;1.85;;;;;;;29.24;44.14;100127.95;1766792;79;21009;-87
2021/07/22 15:35:23;;;;;;;5.28;1.60;;;;;;;29.16;43.67;100127.19;1773054;79;20908;-86
2021/07/22 15:37:49;;;;;;;6.50;2.27;;;;;;;29.11;44.78;100128.36;1785838;78;21082;-83
2021/07/22 15:40:15;;;;;;;8.43;1.85;;;;;;;29.11;44.87;100131.14;1787790;78;20826;-87
2021/07/22 15:42:41;;;;;;;4.37;1.62;;;;;;;29.01;44.58;100132.52;1773139;79;21621;-88
2021/07/22 15:45:07;;;;;;;6.92;2.15;;;;;;;28.84;45.51;100130.72;1801956;78;21391;-86
2021/07/22 15:47:33;;;;;;;7.30;1.82;;;;;;;28.74;45.33;100138.45;1801584;79;21027;-85
2021/07/22 15:49:59;;;;;;;6.70;1.82;;;;;;;28.57;45.37;100133.08;1768223;79;20919;-86
2021/07/22 15:52:25;;;;;;;4.62;1.45;;;;;;;28.46;45.70;100142.75;1772781;79;20877;-84
2021/07/22 15:54:50;;;;;;;9.38;1.80;;;;;;;28.37;45.26;100134.59;1784288;78;21752;-84
2021/07/22 15:57:16;;;;;;;3.47;1.70;;;;;;;28.24;46.02;100136.34;1786264;78;21173;-89
2021/07/22 15:59:42;;;;;;;13.88;2.22;;;;;;;28.21;46.19;100136.34;1767043;80;20972;-86
2021/07/22 16:02:10;;;;;;;3.77;1.67;;;;;;;28.14;46.22;100143.22;1769213;80;20975;-86
2021/07/22 16:04:37;;;;;;;3.42;1.95;;;;;;;28.08;46.90;100143.59;1769558;80;21181;-87
2021/07/22 16:07:06;;;;;;;5.37;1.50;;;;;;;28.13;46.52;100130.56;1769451;80;21055;-87
2021/07/22 16:12:04;;;;;;;4.03;1.70;;;;;;;27.98;47.22;100133.27;1605452;87;21075;-87
2021/07/22 16:14:30;;;;;;;4.25;1.62;;;;;;;27.89;47.62;100139.77;1607105;88;21038;-84
2021/07/22 16:16:57;;;;;;;6.42;1.70;;;;;;;27.84;46.77;100141.52;1601424;88;21582;-93
2021/07/22 16:19:24;;;;;;;8.65;1.80;;;;;;;27.76;47.58;100139.27;1600717;88;20963;-88
2021/07/22 16:21:51;;;;;;;6.85;2.02;;;;;;;27.66;47.23;100144.17;1604032;88;21096;-86
2021/07/22 16:24:17;;;;;;;3.17;2.00;;;;;;;27.55;47.32;100150.23;1611056;86;21101;-88
2021/07/22 16:26:46;;;;;;;2.75;1.60;;;;;;;27.42;47.09;100146.99;1633346;86;21166;-88
2021/07/22 16:29:14;;;;;;;3.70;1.80;;;;;;;27.26;47.29;100155.56;1628786;86;21170;-88
2021/07/22 16:31:40;;;;;;;3.70;1.82;;;;;;;27.08;48.11;100159.55;1570052;89;21106;-86
2021/07/22 16:34:07;;;;;;;11.73;1.50;;;;;;;26.96;48.03;100165.38;1590132;87;21649;-85
2021/07/22 16:36:33;;;;;;;5.72;1.67;;;;;;;26.82;48.41;100165.23;1582519;89;21173;-85
2021/07/22 16:38:59;;;;;;;7.67;2.00;;;;;;;26.65;48.28;100174.38;1593771;89;21682;-87
2021/07/22 16:41:27;;;;;;;7.37;1.65;;;;;;;26.51;49.33;100182.52;1589614;89;20884;-87
2021/07/22 16:43:55;;;;;;;6.95;1.92;;;;;;;26.43;49.36;100184.95;1548754;91;21608;-87
2021/07/22 16:46:21;;;;;;;7.42;2.37;;;;;;;26.31;50.00;100190.73;1550415;91;21538;-84
2021/07/22 16:48:49;;;;;;;5.55;1.80;;;;;;;26.20;50.14;100199.67;1552417;91;21077;-84
2021/07/22 16:51:16;;;;;;;6.75;2.00;;;;;;;26.10;50.58;100198.17;1490170;93;21169;-83
2021/07/22 16:53:42;;;;;;;8.53;2.30;;;;;;;26.02;51.52;100204.97;1493863;94;21110;-86
2021/07/22 16:56:08;;;;;;;4.35;2.10;;;;;;;25.91;51.90;100203.23;1493333;93;21683;-86
2021/07/22 16:58:34;;;;;;;11.83;2.20;;;;;;;25.80;52.67;100214.11;1498904;93;21427;-87
2021/07/22 17:01:00;;;;;;;5.17;1.82;;;;;;;25.69;52.95;100211.77;1497244;93;20945;-87
2021/07/22 17:03:26;;;;;;;9.63;2.08;;;;;;;25.60;53.93;100213.41;1495036;94;21321;-91
2021/07/22 17:05:53;;;;;;;6.35;2.45;;;;;;;25.55;54.36;100215.89;1487666;93;21110;-85
2021/07/22 17:08:20;;;;;;;3.75;1.85;;;;;;;25.47;55.12;100216.16;1499440;93;21227;-86
2021/07/22 17:10:46;;;;;;;5.20;2.22;;;;;;;25.40;55.45;100226.50;1524171;93;21126;-85
2021/07/22 17:13:11;;;;;;;11.80;2.02;;;;;;;25.32;57.55;100222.02;1528878;92;21663;-88
2021/07/22 17:15:38;;;;;;;11.35;1.90;;;;;;;25.27;57.49;100219.59;1525342;93;20921;-83
2021/07/22 17:18:05;;;;;;;3.75;1.77;;;;;;;25.22;57.49;100223.45;1527046;93;21198;-87
2021/07/22 17:20:30;;;;;;;4.05;1.47;;;;;;;25.13;58.48;100227.83;1530829;93;21108;-85
2021/07/22 17:22:56;;;;;;;5.25;1.95;;;;;;;25.06;59.12;100223.55;1524268;93;21958;-91
2021/07/22 17:25:22;;;;;;;7.45;2.12;;;;;;;24.98;59.56;100227.34;1524112;93;20961;-85
2021/07/22 17:27:49;;;;;;;8.40;1.92;;;;;;;24.92;60.39;100239.83;1540906;88;21603;-83
2021/07/22 17:30:15;;;;;;;4.05;1.75;;;;;;;24.81;61.31;100238.23;1590923;88;21247;-85
2021/07/22 17:32:42;;;;;;;9.55;2.30;;;;;;;24.67;62.50;100237.37;1584429;88;21030;-85
2021/07/22 17:35:10;;;;;;;4.37;1.95;;;;;;;24.56;62.68;100241.91;1588413;88;21221;-87
2021/07/22 17:37:37;;;;;;;6.53;2.00;;;;;;;24.44;64.46;100239.27;1555387;90;21194;-85
2021/07/22 17:40:06;;;;;;;9.23;1.98;;;;;;;24.35;65.03;100245.55;1574714;89;21355;-84
2021/07/22 17:42:34;;;;;;;6.50;2.12;;;;;;;24.27;65.58;100244.62;1667489;84;21510;-87
2021/07/22 17:45:00;;;;;;;6.05;2.12;;;;;;;24.17;65.91;100243.21;1657456;86;21510;-85
2021/07/22 17:47:26;;;;;;;6.42;2.33;;;;;;;24.07;66.43;100254.02;1661336;84;21063;-85
2021/07/22 17:49:52;;;;;;;14.23;2.40;;;;;;;23.98;67.12;100253.63;1685141;84;21133;-84
2021/07/22 17:52:18;;;;;;;7.55;2.30;;;;;;;23.89;68.68;100257.16;1683463;84;20891;-87
2021/07/22 17:54:44;;;;;;;8.08;2.30;;;;;;;23.79;69.02;100261.23;1682737;84;20975;-86
2021/07/22 17:57:09;;;;;;;11.63;2.55;;;;;;;23.70;70.84;100262.59;1685997;84;20904;-85
2021/07/22 17:59:35;;;;;;;7.40;2.33;;;;;;;23.61;71.14;100268.83;1680641;84;21138;-86
2021/07/22 18:02:01;;;;;;;6.92;2.30;;;;;;;23.52;72.21;100271.17;1685187;84;21053;-85
2021/07/22 18:04:27;;;;;;;14.03;2.30;;;;;;;23.43;73.58;100279.39;1685864;84;21081;-86
2021/07/22 18:06:53;;;;;;;3.80;2.12;;;;;;;23.31;74.83;100282.44;1684366;84;21362;-86
2021/07/22 18:09:19;;;;;;;10.15;3.17;;;;;;;23.23;75.08;100280.65;1684873;84;20939;-86
2021/07/22 18:11:45;;;;;;;6.42;2.70;;;;;;;23.12;77.44;100273.52;1685852;84;21772;-84
2021/07/22 18:14:11;;;;;;;6.33;2.65;;;;;;;23.01;77.74;100282.62;1684580;84;21077;-86
2021/07/22 18:16:38;;;;;;;12.88;2.90;;;;;;;22.94;79.53;100284.55;1680294;84;21419;-83
2021/07/22 18:19:06;;;;;;;5.22;2.40;;;;;;;22.88;79.97;100287.33;1685488;84;21070;-86
2021/07/22 18:21:32;;;;;;;10.40;3.00;;;;;;;22.81;81.33;100286.56;1628432;87;21293;-86
2021/07/22 18:23:58;;;;;;;8.73;2.80;;;;;;;22.73;84.06;100293.00;1626891;87;21103;-85
2021/07/22 18:26:24;;;;;;;9.88;2.87;;;;;;;22.65;84.72;100287.10;1628668;87;20978;-87
2021/07/22 18:28:50;;;;;;;7.95;2.52;;;;;;;22.55;86.82;100284.25;1630737;87;21121;-85
2021/07/22 18:31:25;;;;;;;8.98;2.58;;;;;;;22.49;87.33;100285.64;1607840;88;21087;-86
2021/07/22 18:34:17;;;;;;;9.65;2.30;;;;;;;22.40;87.60;100290.48;1572138;89;21075;-86
2021/07/22 18:37:03;;;;;;;9.05;2.12;;;;;;;22.33;89.07;100295.77;1576753;89;21065;-88
2021/07/22 18:39:30;;;;;;;10.20;2.50;;;;;;;22.24;89.54;100293.16;1507887;94;21067;-86
2021/07/22 18:42:00;;;;;;;8.35;2.55;;;;;;;22.17;90.91;100290.18;1519977;91;21145;-86
2021/07/22 18:44:27;;;;;;;7.62;3.35;;;;;;;22.12;92.22;100298.06;1525616;92;21027;-86
2021/07/22 18:46:53;;;;;;;6.83;2.12;;;;;;;22.09;91.56;100293.81;1536067;91;21006;-86
2021/07/22 18:49:19;;;;;;;7.15;2.60;;;;;;;22.02;92.94;100294.39;1520467;92;21202;-87
2021/07/22 18:51:46;;;;;;;10.15;2.35;;;;;;;21.97;94.30;100294.63;1520719;92;21086;-87
2021/07/22 18:54:11;;;;;;;11.43;2.55;;;;;;;21.90;93.88;100297.95;1528319;92;21148;-87
2021/07/22 18:56:39;;;;;;;8.08;2.58;;;;;;;21.85;95.67;100292.68;1532114;91;20903;-83
2021/07/22 18:59:05;;;;;;;6.90;2.30;;;;;;;21.81;96.51;100296.47;1526398;92;21101;-85
2021/07/22 19:01:31;;;;;;;11.57;2.75;;;;;;;21.74;96.98;100302.53;1516935;92;21962;-86
2021/07/22 19:03:58;;;;;;;7.87;2.55;;;;;;;21.69;96.43;100306.86;1533566;91;21236;-86
2021/07/22 19:06:24;;;;;;;7.95;2.10;;;;;;;21.65;96.75;100305.39;1526078;92;21107;-85
2021/07/22 19:08:50;;;;;;;9.48;2.52;;;;;;;21.62;96.40;100314.84;1520651;93;21651;-88
2021/07/22 19:11:17;;;;;;;8.25;2.62;;;;;;;21.57;96.90;100315.88;1511416;92;21100;-85
2021/07/22 19:13:45;;;;;;;8.05;2.12;;;;;;;21.54;98.18;100310.50;1531411;92;21149;-86
2021/07/22 19:16:11;;;;;;;9.05;2.77;;;;;;;21.50;98.75;100315.63;1520591;92;21058;-86
2021/07/22 19:18:36;;;;;;;9.08;3.10;;;;;;;21.44;98.66;100316.44;1573206;88;21469;-91
2021/07/22 19:21:02;;;;;;;10.40;2.42;;;;;;;21.42;100.00;100319.29;1599759;89;20895;-86
2021/07/22 19:23:28;;;;;;;7.40;2.65;;;;;;;21.40;100.00;100316.88;1598228;84;21685;-83
2021/07/22 19:25:54;;;;;;;9.35;2.62;;;;;;;21.38;99.67;100317.77;1686224;84;21151;-87
2021/07/22 19:28:20;;;;;;;7.97;2.65;;;;;;;21.37;99.17;100323.61;1693693;83;20952;-86
2021/07/22 19:30:46;;;;;;;11.75;3.15;;;;;;;21.35;99.21;100322.53;1682382;83;21225;-87
2021/07/22 19:33:12;;;;;;;9.45;2.60;;;;;;;21.32;98.80;100325.41;1685037;80;21073;-86
2021/07/22 19:35:38;;;;;;;11.08;2.52;;;;;;;21.30;98.77;100320.83;1804026;79;20980;-85
2021/07/22 19:38:04;;;;;;;18.35;2.50;;;;;;;21.30;98.57;100322.77;1801350;79;21936;-88
2021/07/22 19:40:30;;;;;;;8.25;2.55;;;;;;;21.26;98.37;100329.48;1785222;79;21602;-88
2021/07/22 19:42:56;;;;;;;5.40;2.77;;;;;;;21.25;98.26;100333.94;1803376;78;20900;-87
2021/07/22 19:45:22;;;;;;;8.05;2.37;;;;;;;21.24;97.70;100328.23;1798090;79;20838;-87
2021/07/22 19:47:48;;;;;;;6.35;1.95;;;;;;;21.23;98.61;100333.47;1795973;79;21578;-85
2021/07/22 19:50:15;;;;;;;9.60;2.12;;;;;;;21.21;97.42;100334.39;1788830;78;21123;-93
2021/07/22 19:52:43;;;;;;;6.78;1.87;;;;;;;21.18;98.36;100334.50;1772561;79;20968;-84
2021/07/22 19:55:11;;;;;;;6.15;1.90;;;;;;;21.16;98.38;100338.14;1777427;79;20972;-86
2021/07/22 19:57:37;;;;;;;4.00;1.80;;;;;;;21.15;99.37;100334.34;1802960;78;21035;-88
2021/07/22 20:00:05;;;;;;;4.65;2.12;;;;;;;21.12;97.47;100340.50;1776109;79;21491;-87
2021/07/22 20:02:31;;;;;;;4.20;1.80;;;;;;;21.08;97.64;100338.44;1786585;79;21965;-86
2021/07/22 20:04:57;;;;;;;4.12;2.12;;;;;;;21.06;97.04;100340.73;1773912;79;20862;-92
2021/07/22 20:07:23;;;;;;;5.25;1.70;;;;;;;21.04;96.88;100341.63;1775842;79;21682;-87
2021/07/22 20:09:49;;;;;;;5.40;1.92;;;;;;;21.02;97.12;100335.68;1784786;79;21143;-87
2021/07/22 20:12:15;;;;;;;10.23;2.35;;;;;;;21.01;96.12;100342.88;1776645;79;21089;-86
2021/07/22 20:14:41;;;;;;;9.75;2.10;;;;;;;20.99;96.72;100341.03;1758982;79;21148;-89
2021/07/22 20:17:07;;;;;;;4.78;1.80;;;;;;;20.94;96.33;100347.54;1778620;79;20877;-88
2021/07/22 20:19:33;;;;;;;6.72;1.70;;;;;;;20.92;96.37;100349.02;1792603;78;21125;-88
2021/07/22 20:22:01;;;;;;;4.65;2.10;;;;;;;20.88;96.48;100347.48;1785972;79;20988;-85
2021/07/22 20:24:27;;;;;;;8.25;2.20;;;;;;;20.85;95.81;100344.88;1799031;78;20984;-86
2021/07/22 20:29:28;;;;;;;11.55;2.20;;;;;;;20.80;95.99;100357.39;1720587;81;21066;-93
2021/07/22 20:31:54;;;;;;;8.28;2.02;;;;;;;20.79;94.90;100361.25;1734323;81;21063;-87
2021/07/22 20:34:20;;;;;;;8.43;2.42;;;;;;;20.75;95.46;100356.22;1741361;81;20960;-88
2021/07/22 20:36:49;;;;;;;5.15;2.47;;;;;;;20.73;95.18;100357.11;1719420;81;21946;-89
2021/07/22 20:39:15;;;;;;;7.55;2.02;;;;;;;20.71;94.65;100355.87;1748721;81;21944;-87
2021/07/22 20:41:42;;;;;;;7.33;2.20;;;;;;;20.71;96.75;100357.23;1713681;82;21204;-90
2021/07/22 20:44:08;;;;;;;8.10;2.47;;;;;;;20.67;97.41;100358.45;1721370;81;21151;-87
2021/07/22 20:46:34;;;;;;;9.80;2.30;;;;;;;20.63;95.56;100364.37;1719930;81;20964;-88
2021/07/22 20:49:00;;;;;;;7.37;2.08;;;;;;;20.60;96.54;100367.77;1727693;81;20943;-86
2021/07/22 20:51:30;;;;;;;5.45;2.00;;;;;;;20.56;95.73;100370.38;1729599;81;21079;-87
2021/07/22 20:53:54;;;;;;;6.40;2.12;;;;;;;20.54;96.62;100374.58;1741478;81;21018;-87
2021/07/22 20:56:19;;;;;;;9.03;2.30;;;;;;;20.50;96.31;100374.42;1755240;81;20960;-84
2021/07/22 20:58:45;;;;;;;4.90;2.15;;;;;;;20.47;97.67;100381.10;1748449;81;20858;-87
2021/07/22 21:01:14;;;;;;;7.35;2.52;;;;;;;20.42;96.64;100378.80;1724032;81;21077;-86
2021/07/22 21:03:39;;;;;;;10.80;2.20;;;;;;;20.38;97.26;100372.41;1713440;82;21003;-84
2021/07/22 21:06:05;;;;;;;9.75;2.25;;;;;;;20.33;98.12;100376.69;1713563;82;21031;-87
2021/07/22 21:10:59;;;;;;;8.25;2.35;;;;;;;20.27;97.56;100382.12;1673434;84;21109;-85
2021/07/22 21:13:25;;;;;;;4.75;2.10;;;;;;;20.23;98.11;100378.42;1677621;84;21067;-86
2021/07/22 21:15:50;;;;;;;9.03;2.83;;;;;;;20.19;98.86;100381.59;1676623;85;21170;-87
2021/07/22 21:18:16;;;;;;;7.22;2.30;;;;;;;20.15;98.16;100378.72;1677547;85;20990;-88
2021/07/22 21:20:43;;;;;;;7.92;2.10;;;;;;;20.14;98.01;100387.24;1667907;84;21014;-87
2021/07/22 21:23:11;;;;;;;12.75;2.33;;;;;;;20.10;99.14;100393.94;1681000;83;21599;-87
2021/07/22 21:25:39;;;;;;;7.95;2.20;;;;;;;20.08;98.22;100393.45;1678723;84;21022;-93
2021/07/22 21:28:04;;;;;;;4.87;1.92;;;;;;;20.07;98.29;100400.64;1671515;84;21583;-88
2021/07/22 21:30:34;;;;;;;6.45;2.20;;;;;;;20.04;97.84;100402.09;1671638;84;20982;-87
2021/07/22 21:33:00;;;;;;;5.47;2.02;;;;;;;20.00;97.88;100397.59;1622403;87;21055;-85
2021/07/22 21:35:27;;;;;;;4.40;2.17;;;;;;;19.98;97.76;100403.98;1609010;88;21529;-88
2021/07/22 21:37:55;;;;;;;9.20;2.05;;;;;;;19.94;97.63;100414.21;1618890;87;21074;-85
2021/07/22 21:40:21;;;;;;;7.72;2.42;;;;;;;19.92;97.41;100419.20;1622559;87;21074;-86
2021/07/22 21:42:47;;;;;;;6.30;1.85;;;;;;;19.89;98.15;100418.48;1620606;87;21039;-91
2021/07/22 21:45:13;;;;;;;7.22;1.72;;;;;;;19.88;98.13;100420.16;1624177;88;21646;-92
2021/07/22 21:47:39;;;;;;;6.25;1.82;;;;;;;19.84;99.33;100417.86;1615081;87;21030;-87
2021/07/22 21:50:07;;;;;;;5.17;2.05;;;;;;;19.79;99.44;100421.55;1613313;87;21006;-88
2021/07/22 21:52:34;;;;;;;5.70;2.45;;;;;;;19.74;99.53;100423.92;1612613;88;21352;-87